Time;durP1;ratioP1;P1;durP2;ratioP2;P2;SDS_P1;SDS_P2;PMS_P1;PMS_P2;Temp;Humidity;BMP_temperature;BMP_pressure;BME280_temperature;BME280_humidity;BME280_pressure;Samples;Min_cycle;Max_cycle;Signal;HPM_P1;HPM_P2
2023/01/26 00:00:47;;;;;;;17.00;9.20;;;0.00;99.90;;;;;;4976007;28;20491;-52
2023/01/26 00:03:15;;;;;;;12.20;9.10;;;0.00;99.90;;;;;;4974820;28;20499;-51
2023/01/26 00:05:43;;;;;;;13.70;10.10;;;-0.10;99.90;;;;;;4974387;28;20517;-53
2023/01/26 00:08:10;;;;;;;14.97;9.40;;;0.00;99.90;;;;;;4973425;28;20603;-52
2023/01/26 00:10:37;;;;;;;11.80;9.10;;;0.00;99.90;;;;;;4975983;28;20833;-53
2023/01/26 00:13:03;;;;;;;17.00;9.10;;;0.00;99.90;;;;;;4973127;28;20471;-51
2023/01/26 00:15:32;;;;;;;10.50;8.87;;;0.00;99.90;;;;;;4973617;28;20579;-52
2023/01/26 00:17:59;;;;;;;15.40;10.43;;;0.00;99.90;;;;;;4968997;28;20469;-52
2023/01/26 00:20:27;;;;;;;16.10;9.60;;;0.00;99.90;;;;;;4975004;28;20924;-52
2023/01/26 00:22:53;;;;;;;14.00;10.30;;;0.00;99.90;;;;;;4974345;28;20547;-52
2023/01/26 00:25:20;;;;;;;11.20;8.27;;;0.00;99.90;;;;;;4974437;28;20534;-52
2023/01/26 00:27:47;;;;;;;13.27;9.33;;;-0.10;99.90;;;;;;4973371;28;20524;-52
2023/01/26 00:30:14;;;;;;;10.13;8.47;;;-0.10;99.90;;;;;;4972602;28;20560;-52
2023/01/26 00:32:41;;;;;;;13.43;9.10;;;-0.10;99.90;;;;;;4972696;28;20580;-53
2023/01/26 00:35:08;;;;;;;12.60;9.30;;;-0.10;99.90;;;;;;4974689;28;20515;-51
2023/01/26 00:37:36;;;;;;;11.20;8.20;;;0.00;99.90;;;;;;4973742;28;20499;-53
2023/01/26 00:40:03;;;;;;;14.80;10.17;;;-0.10;99.90;;;;;;4968859;28;20491;-52
2023/01/26 00:42:29;;;;;;;11.83;9.60;;;-0.10;99.90;;;;;;4974738;28;20563;-52
2023/01/26 00:44:56;;;;;;;16.90;9.80;;;-0.10;99.90;;;;;;4965623;28;20597;-52
2023/01/26 00:47:22;;;;;;;15.70;10.60;;;-0.10;99.90;;;;;;4971567;28;20526;-52
2023/01/26 00:49:49;;;;;;;13.13;9.67;;;-0.10;99.90;;;;;;4967284;28;20978;-52
2023/01/26 00:52:15;;;;;;;14.03;9.40;;;0.00;99.90;;;;;;4974653;28;20551;-52
2023/01/26 00:54:43;;;;;;;12.07;8.50;;;-0.20;99.90;;;;;;4974020;28;20514;-52
2023/01/26 00:57:10;;;;;;;13.13;8.87;;;-0.20;99.90;;;;;;4974425;28;20501;-51
2023/01/26 00:59:36;;;;;;;12.33;9.00;;;-0.20;99.90;;;;;;4971165;28;20504;-51
2023/01/26 01:02:03;;;;;;;14.27;8.90;;;-0.10;99.90;;;;;;4968789;28;20565;-51
2023/01/26 01:04:30;;;;;;;11.90;9.30;;;-0.10;99.90;;;;;;4972944;28;21057;-51
2023/01/26 01:06:57;;;;;;;12.37;8.60;;;-0.10;99.90;;;;;;4969576;28;20580;-50
2023/01/26 01:09:24;;;;;;;12.27;8.73;;;-0.10;99.90;;;;;;4967448;28;20499;-51
2023/01/26 01:11:52;;;;;;;10.63;8.47;;;-0.10;99.90;;;;;;4970790;28;21187;-51
2023/01/26 01:14:18;;;;;;;11.60;8.73;;;-0.10;99.90;;;;;;4972025;28;20556;-51
2023/01/26 01:16:45;;;;;;;11.37;8.13;;;-0.10;99.90;;;;;;4971580;28;20446;-51
2023/01/26 01:19:14;;;;;;;15.43;10.33;;;0.00;99.90;;;;;;4970383;28;20468;-52
2023/01/26 01:21:40;;;;;;;17.20;11.47;;;-0.10;99.90;;;;;;4970734;28;21157;-51
2023/01/26 01:24:07;;;;;;;13.80;9.20;;;-0.10;99.90;;;;;;4970920;28;20552;-52
2023/01/26 01:26:34;;;;;;;14.60;10.70;;;0.00;99.90;;;;;;4970002;28;21080;-51
2023/01/26 01:29:02;;;;;;;13.87;9.70;;;-0.10;99.90;;;;;;4971306;28;21213;-52
2023/01/26 01:31:29;;;;;;;17.30;10.80;;;-0.10;99.90;;;;;;4971892;28;20496;-53
2023/01/26 01:33:55;;;;;;;14.53;9.93;;;-0.10;99.90;;;;;;4968175;28;20563;-51
2023/01/26 01:36:22;;;;;;;15.90;10.30;;;-0.20;99.90;;;;;;4972706;28;21010;-51
2023/01/26 01:38:49;;;;;;;12.97;9.37;;;-0.10;99.90;;;;;;4970539;28;20894;-53
2023/01/26 01:41:18;;;;;;;16.90;11.47;;;0.00;99.90;;;;;;4963198;28;20501;-51
2023/01/26 01:43:45;;;;;;;16.10;10.87;;;-0.10;99.90;;;;;;4971046;28;20496;-53
2023/01/26 01:46:18;;;;;;;14.60;11.30;;;0.00;99.90;;;;;;4970430;28;20584;-52
2023/01/26 01:48:52;;;;;;;15.20;10.57;;;-0.10;99.90;;;;;;4970693;28;20832;-51
2023/01/26 01:51:21;;;;;;;13.33;10.07;;;-0.10;99.90;;;;;;4970414;28;20496;-52
2023/01/26 01:53:51;;;;;;;16.93;10.80;;;-0.10;99.90;;;;;;4970560;28;20868;-51
2023/01/26 01:56:21;;;;;;;14.40;10.40;;;0.00;99.90;;;;;;4972560;28;20464;-51
2023/01/26 01:58:51;;;;;;;20.97;11.20;;;-0.10;99.90;;;;;;4969275;28;20469;-51
2023/01/26 02:01:19;;;;;;;16.00;11.20;;;0.00;99.90;;;;;;4969309;28;20568;-51
2023/01/26 02:03:48;;;;;;;21.30;12.33;;;0.00;99.90;;;;;;4964224;28;20547;-51
2023/01/26 02:06:17;;;;;;;19.73;12.37;;;0.00;99.90;;;;;;4969206;28;20546;-51
2023/01/26 02:08:46;;;;;;;18.57;11.63;;;0.00;99.90;;;;;;4972621;28;20897;-53
2023/01/26 02:11:16;;;;;;;18.93;12.20;;;0.00;99.90;;;;;;4969400;28;20508;-51
2023/01/26 02:13:47;;;;;;;17.53;10.60;;;0.00;99.90;;;;;;4970732;28;20483;-51
2023/01/26 02:16:14;;;;;;;21.17;10.83;;;0.00;99.90;;;;;;4966466;28;20488;-52
2023/01/26 02:18:43;;;;;;;17.70;11.33;;;-0.10;99.90;;;;;;4970920;28;20499;-52
2023/01/26 02:21:13;;;;;;;22.80;12.07;;;-0.10;99.90;;;;;;4966475;28;20468;-51
2023/01/26 02:24:01;;;;;;;21.47;12.47;;;-0.10;99.90;;;;;;4964276;28;20881;-53
2023/01/26 02:26:32;;;;;;;23.73;13.73;;;-0.10;99.90;;;;;;4979281;23;20531;-51
2023/01/26 02:28:59;;;;;;;20.00;11.77;;;-0.10;99.90;;;;;;4972331;28;21100;-51
2023/01/26 02:31:26;;;;;;;19.10;12.37;;;-0.10;99.90;;;;;;4969632;28;20500;-51
2023/01/26 02:33:53;;;;;;;21.90;12.20;;;-0.10;99.90;;;;;;4971340;28;20547;-52
2023/01/26 02:36:21;;;;;;;20.27;11.50;;;-0.10;99.90;;;;;;4971971;28;20527;-51
2023/01/26 02:38:55;;;;;;;21.33;13.00;;;-0.10;99.90;;;;;;4973369;28;20488;-51
2023/01/26 02:44:11;;;;;;;16.70;11.00;;;0.00;99.90;;;;;;4977161;28;20507;-51
2023/01/26 02:46:37;;;;;;;12.27;9.90;;;0.00;99.90;;;;;;4970135;28;20990;-51
2023/01/26 02:51:48;;;;;;;10.97;9.23;;;0.00;99.90;;;;;;4973122;28;20933;-51
2023/01/26 02:56:56;;;;;;;13.57;9.00;;;0.00;99.90;;;;;;4971263;28;20473;-51
2023/01/26 02:59:23;;;;;;;15.27;10.13;;;0.00;99.90;;;;;;4971523;28;20547;-51
2023/01/26 03:01:52;;;;;;;14.80;9.67;;;0.00;99.90;;;;;;4971176;28;20499;-51
2023/01/26 03:04:19;;;;;;;10.57;8.10;;;0.00;99.90;;;;;;4964315;28;20554;-52
2023/01/26 03:06:45;;;;;;;14.73;10.07;;;0.00;99.90;;;;;;4965826;28;20592;-51
2023/01/26 03:09:12;;;;;;;11.10;8.90;;;0.00;99.90;;;;;;4969422;28;21020;-51
2023/01/26 03:11:41;;;;;;;14.10;9.03;;;0.00;99.90;;;;;;4967350;28;20549;-51
2023/01/26 03:14:08;;;;;;;14.53;10.03;;;0.00;99.90;;;;;;4970236;28;20852;-52
2023/01/26 03:16:36;;;;;;;13.30;9.17;;;0.00;99.90;;;;;;4971156;28;20484;-51
2023/01/26 03:27:28;;;;;;;10.27;8.47;;;-0.10;99.90;;;;;;4969776;28;20542;-51
2023/01/26 03:29:54;;;;;;;12.70;8.83;;;-0.10;99.90;;;;;;4976836;28;20452;-52
2023/01/26 03:32:23;;;;;;;13.40;9.70;;;-0.10;99.90;;;;;;4972779;28;20503;-51
2023/01/26 03:34:49;;;;;;;11.87;8.67;;;-0.10;99.90;;;;;;4975211;28;20555;-51
2023/01/26 03:37:20;;;;;;;13.13;10.17;;;-0.10;99.90;;;;;;4972135;28;20486;-51
2023/01/26 03:56:20;;;;;;;17.40;11.90;;;0.00;99.90;;;;;;4974645;28;20510;-51
2023/01/26 03:58:49;;;;;;;17.23;9.93;;;-0.10;99.90;;;;;;4975750;28;20457;-52
2023/01/26 04:01:18;;;;;;;16.17;11.30;;;-0.10;99.90;;;;;;4975479;28;20898;-51
2023/01/26 04:09:16;;;;;;;18.03;11.10;;;-0.20;99.90;;;;;;4979488;28;20466;-51
2023/01/26 04:11:43;;;;;;;16.20;10.43;;;-0.20;99.90;;;;;;4997684;28;20841;-51
2023/01/26 04:22:25;;;;;;;13.07;9.97;;;-0.20;99.90;;;;;;4970669;28;20463;-51
2023/01/26 04:24:52;;;;;;;17.40;11.10;;;-0.10;99.90;;;;;;4966498;28;20551;-53
2023/01/26 04:27:18;;;;;;;20.10;12.97;;;-0.10;99.90;;;;;;4975057;28;20584;-53
2023/01/26 04:29:45;;;;;;;15.13;11.57;;;-0.10;99.90;;;;;;4970675;28;20504;-51
2023/01/26 04:32:11;;;;;;;15.27;10.67;;;-0.10;99.90;;;;;;4971430;28;20508;-51
2023/01/26 04:34:38;;;;;;;14.93;11.17;;;-0.20;99.90;;;;;;4965244;28;20552;-51
2023/01/26 04:37:06;;;;;;;14.27;10.60;;;-0.30;99.90;;;;;;4970403;28;20568;-52
2023/01/26 04:39:32;;;;;;;14.83;10.67;;;-0.20;99.90;;;;;;4974272;28;20521;-52
2023/01/26 04:41:59;;;;;;;16.00;10.90;;;-0.20;99.90;;;;;;4970817;28;20982;-52
2023/01/26 04:44:25;;;;;;;19.63;12.23;;;-0.20;99.90;;;;;;4971492;28;20503;-52
2023/01/26 04:46:52;;;;;;;18.53;11.90;;;-0.20;99.90;;;;;;4973265;28;20488;-52
2023/01/26 04:49:18;;;;;;;17.60;11.60;;;-0.20;99.90;;;;;;4974002;28;20560;-52
2023/01/26 04:51:45;;;;;;;17.20;11.80;;;-0.20;99.90;;;;;;4973420;28;21002;-51
2023/01/26 04:54:13;;;;;;;17.27;12.43;;;-0.20;99.90;;;;;;4986900;28;20448;-51
2023/01/26 04:56:39;;;;;;;15.93;11.73;;;-0.20;99.90;;;;;;4996487;28;20484;-57
2023/01/26 04:59:07;;;;;;;16.37;10.87;;;-0.20;99.90;;;;;;4984916;28;20904;-51
2023/01/26 05:01:34;;;;;;;17.20;12.73;;;-0.20;99.90;;;;;;4972276;28;20468;-52
2023/01/26 05:04:01;;;;;;;18.63;12.27;;;-0.20;99.90;;;;;;4974075;28;20886;-51
2023/01/26 05:06:28;;;;;;;18.77;12.53;;;-0.20;99.90;;;;;;4973894;28;20649;-51
2023/01/26 05:08:55;;;;;;;17.70;11.93;;;-0.20;99.90;;;;;;4973838;28;20526;-51
2023/01/26 05:11:23;;;;;;;18.87;12.20;;;-0.20;99.90;;;;;;4974805;28;20920;-51
2023/01/26 05:13:50;;;;;;;17.57;11.30;;;-0.20;99.90;;;;;;4973896;28;20916;-52
2023/01/26 05:16:17;;;;;;;18.40;12.10;;;-0.20;99.90;;;;;;4975655;28;20501;-52
2023/01/26 05:18:43;;;;;;;19.10;11.70;;;-0.30;99.90;;;;;;4970805;28;20881;-51
2023/01/26 05:21:11;;;;;;;20.63;11.73;;;-0.40;99.90;;;;;;4968054;28;20547;-52
2023/01/26 05:23:37;;;;;;;14.90;10.60;;;-0.40;99.90;;;;;;4968071;28;20576;-51
2023/01/26 05:26:04;;;;;;;14.07;10.87;;;-0.40;99.90;;;;;;4970960;28;20524;-51
2023/01/26 05:28:33;;;;;;;16.17;11.57;;;-0.40;99.90;;;;;;4972629;28;21027;-51
2023/01/26 05:31:00;;;;;;;18.30;11.13;;;-0.50;99.90;;;;;;4970866;28;20500;-51
2023/01/26 05:33:27;;;;;;;15.03;10.33;;;-0.50;99.90;;;;;;4970703;28;20560;-51
2023/01/26 05:35:54;;;;;;;15.23;10.90;;;-0.50;99.90;;;;;;4967632;28;20524;-51
2023/01/26 05:38:21;;;;;;;16.30;11.70;;;-0.40;99.90;;;;;;4971381;28;20494;-51
2023/01/26 05:40:47;;;;;;;14.80;11.33;;;-0.40;99.90;;;;;;4971614;28;20532;-51
2023/01/26 05:43:14;;;;;;;14.97;10.67;;;-0.40;99.90;;;;;;4967886;28;20501;-51
2023/01/26 05:45:42;;;;;;;18.87;12.70;;;-0.30;99.90;;;;;;4972260;28;20512;-51
2023/01/26 05:48:08;;;;;;;17.07;11.67;;;-0.40;99.90;;;;;;4976743;28;20520;-51
2023/01/26 05:50:35;;;;;;;16.77;11.83;;;-0.40;99.90;;;;;;4969609;28;20492;-51
2023/01/26 05:53:01;;;;;;;22.93;13.33;;;-0.30;99.90;;;;;;4966537;28;20891;-51
2023/01/26 05:55:28;;;;;;;16.30;12.63;;;-0.20;99.90;;;;;;4970444;28;20569;-52
2023/01/26 05:57:55;;;;;;;13.23;10.07;;;-0.20;99.90;;;;;;4971348;28;20547;-52
2023/01/26 06:00:22;;;;;;;17.40;11.50;;;-0.40;99.90;;;;;;4970321;28;20553;-51
2023/01/26 06:02:50;;;;;;;16.77;12.00;;;-0.30;99.90;;;;;;4970962;28;21005;-51
2023/01/26 06:05:17;;;;;;;13.00;10.20;;;-0.30;99.90;;;;;;4970682;28;20575;-52
2023/01/26 06:07:43;;;;;;;14.17;9.77;;;-0.30;99.90;;;;;;4971825;28;20516;-52
2023/01/26 06:10:11;;;;;;;15.57;10.93;;;-0.40;99.90;;;;;;4969888;28;21018;-53
2023/01/26 06:12:38;;;;;;;13.70;9.97;;;-0.40;99.90;;;;;;4972264;28;20500;-53
2023/01/26 06:15:05;;;;;;;16.37;11.10;;;-0.40;99.90;;;;;;4969514;28;20490;-52
2023/01/26 06:17:32;;;;;;;12.07;10.30;;;-0.40;98.80;;;;;;4970930;28;20547;-53
2023/01/26 06:19:59;;;;;;;12.53;9.90;;;-0.40;94.90;;;;;;4970571;28;20870;-52
2023/01/26 06:22:26;;;;;;;11.93;9.33;;;-0.40;99.90;;;;;;4970606;28;20568;-53
2023/01/26 06:24:52;;;;;;;13.23;9.80;;;-0.40;98.50;;;;;;4970483;28;20477;-51
2023/01/26 06:27:19;;;;;;;13.57;10.20;;;-0.50;80.10;;;;;;4971933;28;20494;-51
2023/01/26 06:29:46;;;;;;;10.93;9.43;;;-0.50;87.30;;;;;;4972939;28;20468;-52
2023/01/26 06:32:13;;;;;;;10.87;8.60;;;-0.40;99.90;;;;;;4969353;28;20466;-51
2023/01/26 06:34:40;;;;;;;12.17;9.87;;;-0.40;99.90;;;;;;4965210;28;20498;-52
2023/01/26 06:37:08;;;;;;;12.07;9.40;;;-0.30;99.90;;;;;;4966000;28;20484;-53
2023/01/26 06:39:36;;;;;;;10.73;8.50;;;-0.40;99.90;;;;;;4969997;28;20496;-51
2023/01/26 06:42:03;;;;;;;10.70;8.80;;;-0.40;81.20;;;;;;4969522;28;20464;-53
2023/01/26 06:44:29;;;;;;;10.13;8.57;;;-0.40;82.40;;;;;;4973264;28;20479;-52
2023/01/26 06:46:56;;;;;;;11.93;9.27;;;-0.40;89.40;;;;;;4971030;28;20547;-53
2023/01/26 06:49:22;;;;;;;11.40;9.67;;;-0.40;83.70;;;;;;4973020;28;20531;-54
2023/01/26 06:51:58;;;;;;;11.23;8.40;;;-0.40;80.20;;;;;;4965266;28;20496;-54
2023/01/26 06:54:26;;;;;;;11.10;9.50;;;-0.50;71.80;;;;;;4972820;28;20959;-54
2023/01/26 06:56:52;;;;;;;13.47;10.33;;;-0.50;84.50;;;;;;4974396;28;20914;-53
2023/01/26 06:59:19;;;;;;;16.50;11.20;;;-0.50;83.40;;;;;;4978497;28;20480;-53
2023/01/26 07:01:47;;;;;;;16.60;10.80;;;-0.40;88.70;;;;;;4974681;28;20454;-53
2023/01/26 07:04:14;;;;;;;15.67;11.10;;;-0.40;78.80;;;;;;4979196;28;20459;-52
2023/01/26 07:06:41;;;;;;;15.77;11.33;;;-0.40;76.80;;;;;;4990970;28;20492;-53
2023/01/26 07:09:08;;;;;;;12.27;9.63;;;-0.50;75.80;;;;;;4991257;28;20488;-52
2023/01/26 07:11:36;;;;;;;10.03;9.00;;;-0.40;82.70;;;;;;4988962;28;20449;-51
2023/01/26 07:14:02;;;;;;;14.50;10.97;;;-0.40;73.70;;;;;;4990194;28;20453;-52
2023/01/26 07:16:29;;;;;;;13.10;10.30;;;-0.40;20.60;;;;;;4977056;28;20516;-54
2023/01/26 07:18:56;;;;;;;10.77;9.60;;;-0.40;21.70;;;;;;4970669;28;20556;-53
2023/01/26 07:21:22;;;;;;;17.57;11.43;;;-0.50;23.30;;;;;;4965852;28;20546;-55
2023/01/26 07:23:50;;;;;;;12.50;10.70;;;-0.50;23.50;;;;;;4967391;28;20862;-56
2023/01/26 07:26:17;;;;;;;12.13;9.97;;;-0.60;27.00;;;;;;4965543;28;20528;-55
2023/01/26 07:28:45;;;;;;;11.73;9.37;;;-0.50;21.10;;;;;;4966945;28;20600;-55
2023/01/26 07:31:12;;;;;;;10.40;9.00;;;-0.60;22.60;;;;;;4967422;28;20527;-55
2023/01/26 07:33:38;;;;;;;10.10;8.67;;;-0.60;20.80;;;;;;4963247;28;20852;-55
2023/01/26 07:36:05;;;;;;;10.50;9.20;;;-0.60;21.20;;;;;;4965049;28;21003;-55
2023/01/26 07:38:33;;;;;;;12.00;9.80;;;-0.50;78.30;;;;;;4966256;28;21059;-56
2023/01/26 07:41:03;;;;;;;10.30;8.13;;;-0.50;84.80;;;;;;4965995;28;20464;-56
2023/01/26 07:43:33;;;;;;;8.27;7.47;;;-0.60;29.30;;;;;;4965734;28;22097;-55
2023/01/26 07:46:00;;;;;;;12.83;9.13;;;-0.60;21.50;;;;;;4970400;28;20508;-55
2023/01/26 07:48:28;;;;;;;11.23;10.00;;;-0.50;21.30;;;;;;4972534;28;21045;-55
2023/01/26 07:50:58;;;;;;;12.07;9.50;;;-0.60;22.20;;;;;;4971600;28;20469;-54
2023/01/26 07:53:27;;;;;;;13.00;9.33;;;-0.60;24.20;;;;;;4970678;28;20547;-56
2023/01/26 07:55:55;;;;;;;11.00;8.63;;;-0.60;23.20;;;;;;4972178;28;20548;-54
2023/01/26 07:58:21;;;;;;;10.20;8.53;;;-0.60;81.20;;;;;;4964560;28;20487;-55
2023/01/26 08:00:48;;;;;;;7.70;7.00;;;-0.60;24.10;;;;;;4971909;28;20511;-55
2023/01/26 08:03:16;;;;;;;8.40;7.13;;;-0.70;28.20;;;;;;4972357;28;20507;-55
2023/01/26 08:05:43;;;;;;;7.00;6.40;;;-0.70;24.00;;;;;;4968499;28;21033;-55
2023/01/26 08:08:09;;;;;;;8.67;7.07;;;-0.80;25.70;;;;;;4966226;28;20521;-56
2023/01/26 08:10:36;;;;;;;8.90;7.33;;;-0.70;23.60;;;;;;4969227;28;20990;-56
2023/01/26 08:13:02;;;;;;;8.00;6.80;;;-0.60;21.60;;;;;;4970880;28;20978;-56
2023/01/26 08:15:29;;;;;;;9.07;7.90;;;-0.50;22.40;;;;;;4968729;28;21029;-56
2023/01/26 08:17:56;;;;;;;10.03;8.00;;;-0.60;24.30;;;;;;4975344;28;20506;-55
2023/01/26 08:20:24;;;;;;;9.20;7.80;;;-0.60;25.00;;;;;;4975456;28;20480;-54
2023/01/26 08:22:50;;;;;;;9.47;8.20;;;-0.50;23.40;;;;;;4971435;28;20556;-54
2023/01/26 08:25:17;;;;;;;11.03;8.90;;;-0.50;24.00;;;;;;4974757;28;20512;-56
2023/01/26 08:27:43;;;;;;;8.43;7.43;;;-0.50;22.90;;;;;;4971993;28;20507;-55
2023/01/26 08:30:11;;;;;;;8.40;7.60;;;-0.60;23.80;;;;;;4964556;28;20559;-55
2023/01/26 08:32:37;;;;;;;7.43;6.73;;;-0.60;23.10;;;;;;4967919;28;20911;-59
2023/01/26 08:35:05;;;;;;;7.03;6.30;;;-0.60;23.20;;;;;;4970796;28;21081;-58
2023/01/26 08:37:33;;;;;;;7.23;6.53;;;-0.50;22.90;;;;;;4968388;28;20551;-57
2023/01/26 08:39:59;;;;;;;7.37;6.47;;;-0.50;24.30;;;;;;4972012;28;20559;-56
2023/01/26 08:42:26;;;;;;;6.90;6.20;;;-0.50;27.60;;;;;;4973200;28;20456;-57
2023/01/26 08:44:52;;;;;;;6.90;6.30;;;-0.50;26.60;;;;;;4973201;28;20507;-56
2023/01/26 08:47:19;;;;;;;7.17;6.50;;;-0.50;28.70;;;;;;4973371;28;20552;-56
2023/01/26 08:49:46;;;;;;;7.47;6.73;;;-0.40;28.60;;;;;;4959647;28;21003;-56
2023/01/26 08:52:12;;;;;;;7.10;6.37;;;-0.50;29.90;;;;;;4973273;28;20488;-56
2023/01/26 08:54:40;;;;;;;8.57;7.27;;;-0.50;31.30;;;;;;4973819;28;20499;-57
2023/01/26 08:57:07;;;;;;;8.37;7.50;;;-0.40;27.90;;;;;;4967659;28;21937;-57
2023/01/26 08:59:33;;;;;;;8.80;6.87;;;-0.50;30.00;;;;;;4967771;28;20549;-57
2023/01/26 09:02:00;;;;;;;7.37;6.67;;;-0.60;33.70;;;;;;4963637;28;20551;-57
2023/01/26 09:04:27;;;;;;;7.63;6.83;;;-0.50;27.90;;;;;;4984063;28;20540;-57
2023/01/26 09:06:53;;;;;;;6.33;5.73;;;-0.60;28.60;;;;;;4966611;28;20488;-57
2023/01/26 09:09:20;;;;;;;7.13;6.43;;;-0.60;28.90;;;;;;4967337;28;20595;-57
2023/01/26 09:11:48;;;;;;;6.63;6.00;;;-0.60;25.90;;;;;;4971604;28;20465;-57
2023/01/26 09:14:14;;;;;;;6.63;6.03;;;-0.60;26.80;;;;;;4973054;28;20950;-57
2023/01/26 09:16:41;;;;;;;9.40;7.03;;;-0.50;24.60;;;;;;4968470;28;21042;-57
2023/01/26 09:19:07;;;;;;;8.57;7.70;;;-0.60;28.10;;;;;;4970848;28;20497;-58
2023/01/26 09:21:34;;;;;;;7.80;7.03;;;-0.60;27.10;;;;;;4968820;28;20564;-57
2023/01/26 09:24:01;;;;;;;7.87;6.67;;;-0.60;26.00;;;;;;4966802;28;20556;-56
2023/01/26 09:26:29;;;;;;;7.70;6.53;;;-0.60;25.90;;;;;;4971445;28;20496;-57
2023/01/26 09:28:57;;;;;;;7.90;7.10;;;-0.50;23.70;;;;;;4954439;28;21097;-56
2023/01/26 09:31:24;;;;;;;8.00;7.20;;;-0.50;22.90;;;;;;4959847;28;20560;-57
2023/01/26 09:33:50;;;;;;;6.80;6.20;;;-0.50;28.60;;;;;;4969846;28;20552;-57
2023/01/26 09:36:17;;;;;;;7.60;6.90;;;-0.40;23.30;;;;;;4963647;28;20579;-57
2023/01/26 09:38:44;;;;;;;7.93;7.13;;;-0.50;27.60;;;;;;4967692;28;20572;-57
2023/01/26 09:41:25;;;;;;;14.83;7.50;;;-0.40;26.40;;;;;;4960498;28;20949;-57
2023/01/26 09:43:54;;;;;;;6.60;6.00;;;-0.40;27.60;;;;;;4970190;28;20543;-57
2023/01/26 09:46:26;;;;;;;7.20;6.17;;;-0.40;37.60;;;;;;4964530;28;20936;-57
2023/01/26 09:49:05;;;;;;;9.67;7.30;;;-0.40;33.60;;;;;;4969118;28;20587;-57
2023/01/26 09:51:35;;;;;;;7.60;6.13;;;-0.30;32.90;;;;;;4966814;28;20477;-57
2023/01/26 09:54:05;;;;;;;6.97;6.37;;;-0.20;34.50;;;;;;4966645;28;20555;-57
2023/01/26 09:56:33;;;;;;;6.70;6.10;;;-0.20;38.70;;;;;;4968897;28;20592;-57
2023/01/26 09:59:05;;;;;;;6.47;5.90;;;-0.30;49.10;;;;;;4966769;28;20848;-57
2023/01/26 10:01:40;;;;;;;6.40;5.80;;;-0.30;54.20;;;;;;4964684;28;20962;-56
2023/01/26 10:04:15;;;;;;;6.10;5.60;;;-0.40;58.40;;;;;;4969484;28;20544;-57
2023/01/26 10:06:43;;;;;;;5.37;4.93;;;-0.30;52.80;;;;;;4984519;28;20472;-57
2023/01/26 10:09:17;;;;;;;6.27;5.77;;;-0.40;65.80;;;;;;4991174;28;20492;-57
2023/01/26 10:11:47;;;;;;;6.40;5.90;;;-0.30;61.00;;;;;;4991719;28;20460;-58
2023/01/26 10:14:20;;;;;;;5.53;5.13;;;-0.30;57.90;;;;;;4970164;28;20464;-56
2023/01/26 10:16:51;;;;;;;4.93;4.53;;;-0.20;58.10;;;;;;4972291;28;20583;-56
2023/01/26 10:19:30;;;;;;;5.33;4.93;;;-0.20;64.90;;;;;;4967140;28;20552;-56
2023/01/26 10:22:03;;;;;;;4.90;4.50;;;-0.20;64.00;;;;;;4964755;28;20556;-56
2023/01/26 10:24:32;;;;;;;4.87;4.53;;;-0.30;78.20;;;;;;4964444;28;20461;-57
2023/01/26 10:27:00;;;;;;;4.87;4.57;;;-0.20;67.30;;;;;;4969857;28;21072;-56
2023/01/26 10:29:26;;;;;;;5.23;4.73;;;-0.20;73.10;;;;;;4966030;28;20500;-57
2023/01/26 10:31:54;;;;;;;5.43;5.00;;;-0.40;74.90;;;;;;4966731;28;20560;-57
2023/01/26 10:34:24;;;;;;;5.67;5.27;;;-0.30;63.60;;;;;;4963215;28;20591;-57
2023/01/26 10:36:57;;;;;;;6.27;5.67;;;-0.20;62.70;;;;;;4963992;28;20496;-57
2023/01/26 10:39:24;;;;;;;6.03;5.57;;;-0.30;63.90;;;;;;4964948;28;20541;-57
2023/01/26 10:41:59;;;;;;;6.77;6.07;;;-0.20;65.40;;;;;;4974402;28;21073;-57
2023/01/26 10:44:32;;;;;;;7.27;6.60;;;-0.30;69.90;;;;;;4966696;28;20500;-57
2023/01/26 10:47:06;;;;;;;7.07;6.47;;;-0.40;68.10;;;;;;4965949;28;20572;-58
2023/01/26 10:49:33;;;;;;;8.80;7.10;;;-0.30;57.10;;;;;;4969062;28;20568;-57
2023/01/26 10:52:08;;;;;;;7.67;6.93;;;-0.30;55.20;;;;;;4964251;28;20501;-57
2023/01/26 10:54:35;;;;;;;6.67;6.07;;;-0.30;59.60;;;;;;4970260;28;20547;-57
2023/01/26 10:57:06;;;;;;;7.17;6.53;;;-0.30;58.10;;;;;;4967112;28;20480;-57
2023/01/26 10:59:34;;;;;;;8.07;7.30;;;-0.30;57.00;;;;;;4968336;28;20453;-57
2023/01/26 11:02:19;;;;;;;7.50;6.80;;;-0.10;53.70;;;;;;4960239;28;20576;-57
2023/01/26 11:05:02;;;;;;;8.23;7.37;;;-0.30;65.90;;;;;;4969249;28;20460;-56
2023/01/26 11:07:33;;;;;;;7.70;7.10;;;-0.20;60.00;;;;;;4965597;28;20981;-57
2023/01/26 11:10:18;;;;;;;7.10;6.47;;;-0.10;55.20;;;;;;4968526;28;20688;-58
2023/01/26 11:12:44;;;;;;;7.40;6.80;;;-0.10;57.20;;;;;;4967793;28;20476;-56
2023/01/26 11:15:16;;;;;;;6.77;6.17;;;-0.10;59.30;;;;;;4970928;28;20523;-56
2023/01/26 11:17:50;;;;;;;5.83;5.33;;;-0.20;65.10;;;;;;4970698;28;20899;-56
2023/01/26 11:20:41;;;;;;;6.43;5.90;;;-0.20;67.30;;;;;;4966137;28;20550;-56
2023/01/26 11:23:14;;;;;;;6.57;6.00;;;-0.20;74.00;;;;;;4965015;28;20539;-57
2023/01/26 11:25:48;;;;;;;7.10;6.50;;;-0.10;65.00;;;;;;4970857;28;20550;-56
2023/01/26 11:28:34;;;;;;;6.93;6.33;;;-0.20;71.50;;;;;;4971756;28;20501;-57
2023/01/26 11:31:14;;;;;;;7.93;7.13;;;-0.20;71.20;;;;;;4972546;28;20564;-56
2023/01/26 11:33:51;;;;;;;6.20;5.70;;;-0.20;68.40;;;;;;4971218;28;21035;-56
2023/01/26 11:36:28;;;;;;;6.63;5.93;;;-0.30;65.50;;;;;;4972471;28;20555;-57
2023/01/26 11:39:02;;;;;;;7.07;6.37;;;-0.20;57.50;;;;;;4967966;28;20559;-56
2023/01/26 11:41:42;;;;;;;6.77;6.20;;;-0.10;57.50;;;;;;4972720;28;20475;-57
2023/01/26 11:44:25;;;;;;;6.70;6.10;;;-0.20;71.50;;;;;;4973415;28;20487;-57
2023/01/26 11:47:10;;;;;;;7.83;7.03;;;-0.20;66.60;;;;;;4976137;28;20519;-58
2023/01/26 11:50:13;;;;;;;6.50;6.00;;;-0.20;65.90;;;;;;4975104;28;20575;-56
2023/01/26 11:52:51;;;;;;;6.57;6.00;;;-0.10;63.40;;;;;;4976331;28;20459;-57
2023/01/26 11:55:27;;;;;;;6.03;5.53;;;-0.10;66.20;;;;;;4986036;28;20503;-57
2023/01/26 11:58:07;;;;;;;5.70;5.20;;;-0.20;78.30;;;;;;4991156;28;20471;-57
2023/01/26 12:00:40;;;;;;;5.87;5.37;;;0.00;70.80;;;;;;4992025;28;20445;-56
2023/01/26 12:03:16;;;;;;;5.53;5.03;;;-0.10;70.70;;;;;;4989137;28;20495;-57
2023/01/26 12:05:48;;;;;;;5.10;4.70;;;-0.10;68.90;;;;;;4977033;28;20512;-56
2023/01/26 12:08:21;;;;;;;6.03;5.53;;;-0.20;72.00;;;;;;4969876;28;20481;-55
2023/01/26 12:10:55;;;;;;;6.10;5.60;;;-0.20;71.50;;;;;;4956693;29;20521;-56
2023/01/26 12:13:32;;;;;;;5.97;5.47;;;-0.20;65.40;;;;;;4957560;28;20488;-58
2023/01/26 12:16:11;;;;;;;6.40;5.67;;;-0.10;62.20;;;;;;4965749;28;20492;-57
2023/01/26 12:18:45;;;;;;;6.67;6.17;;;-0.10;62.60;;;;;;4972408;28;20559;-57
2023/01/26 12:21:13;;;;;;;6.37;5.87;;;0.00;64.00;;;;;;4967368;28;20463;-57
2023/01/26 12:23:47;;;;;;;6.30;5.80;;;-0.10;74.00;;;;;;4967366;28;20471;-57
2023/01/26 12:26:17;;;;;;;7.70;7.00;;;0.00;65.80;;;;;;4960820;28;20579;-55
2023/01/26 12:28:50;;;;;;;9.10;6.67;;;0.10;62.30;;;;;;4955954;28;20895;-57
2023/01/26 12:31:22;;;;;;;6.70;6.10;;;0.10;66.80;;;;;;4971438;28;20524;-54
2023/01/26 12:33:52;;;;;;;7.10;6.50;;;0.10;67.80;;;;;;4967719;28;20508;-54
2023/01/26 12:36:27;;;;;;;8.87;7.70;;;-0.10;74.60;;;;;;4974162;28;20516;-55
2023/01/26 12:39:02;;;;;;;7.97;7.37;;;-0.10;68.20;;;;;;4970405;28;20551;-54
2023/01/26 12:41:38;;;;;;;8.20;7.37;;;-0.10;68.80;;;;;;4970604;28;20493;-55
2023/01/26 12:44:17;;;;;;;8.23;7.50;;;0.00;64.10;;;;;;4969695;28;21066;-54
2023/01/26 12:46:50;;;;;;;7.43;6.73;;;-0.10;73.80;;;;;;4970776;28;20575;-55
2023/01/26 12:49:22;;;;;;;8.43;7.57;;;-0.10;71.60;;;;;;4974410;28;20461;-54
2023/01/26 12:51:55;;;;;;;8.27;7.57;;;-0.10;70.10;;;;;;4973945;28;20510;-55
2023/01/26 12:54:30;;;;;;;7.60;6.90;;;-0.10;63.80;;;;;;4973136;28;20499;-54
2023/01/26 12:56:59;;;;;;;8.60;7.80;;;-0.10;55.30;;;;;;4966252;28;20583;-55
2023/01/26 12:59:32;;;;;;;9.30;8.40;;;-0.10;56.30;;;;;;4973124;28;20509;-54
2023/01/26 13:01:59;;;;;;;8.40;7.60;;;-0.10;53.70;;;;;;4959482;28;20924;-53
2023/01/26 13:04:26;;;;;;;9.30;8.30;;;0.00;52.60;;;;;;4971788;28;20475;-55
2023/01/26 13:07:03;;;;;;;9.60;8.60;;;0.00;55.40;;;;;;4974664;28;20887;-54
2023/01/26 13:09:30;;;;;;;10.57;9.47;;;-0.10;56.10;;;;;;4968741;28;20560;-54
2023/01/26 13:11:58;;;;;;;11.10;10.00;;;-0.10;54.40;;;;;;4968258;28;20482;-55
2023/01/26 13:14:36;;;;;;;9.50;8.47;;;-0.10;51.90;;;;;;4967683;28;20466;-55
2023/01/26 13:17:45;;;;;;;9.90;8.97;;;-0.10;50.30;;;;;;4964799;28;20481;-55
2023/01/26 13:20:40;;;;;;;9.10;8.27;;;-0.10;51.60;;;;;;4951312;28;20581;-55
2023/01/26 13:23:44;;;;;;;11.57;9.97;;;-0.10;48.50;;;;;;4963503;28;20499;-55
2023/01/26 13:26:49;;;;;;;11.97;8.57;;;0.00;48.40;;;;;;4971682;28;20519;-54
2023/01/26 13:29:51;;;;;;;10.27;9.30;;;-0.10;54.10;;;;;;4968556;28;20576;-55
2023/01/26 13:32:54;;;;;;;9.70;8.80;;;-0.10;50.70;;;;;;4967841;28;20544;-55
2023/01/26 13:35:23;;;;;;;8.90;8.10;;;-0.20;54.10;;;;;;4965938;28;20488;-55
2023/01/26 13:37:56;;;;;;;9.67;8.70;;;-0.20;49.00;;;;;;4968135;28;20497;-54